Mackenzie, Canada
Current Conditions -  °F | °C
As of 10:22 PM on Friday 31 Oct 2014 (Local Time) from CYZY Reporting Station
Haze Haze  
Wind Chill: 30°   Ceiling: Unl
Heat Index: 30°   Visibility: 0.62mi
Dew Point: 30°   Wind: 2mph
Humidity: 100%   Direction: 170°S
Pressure: 29.73"   Gusts: NA
Location:  55.33°N, 123.09°W
Report Text: CYZY 010522Z AUTO 17002KT 5/8SM BR SCT001 SCT010 M01/M01 A2973 RMK ICG INTMT SLP098
Loading
Personal Weather Stations






























Interactive Weather Map
Tropical Storm Tracking
New forecast layout! Learn more

10-Day Weather Forecast

Advertisements
Track Severe Weather on mobile